Time;durP1;ratioP1;P1;durP2;ratioP2;P2;SDS_P1;SDS_P2;PMS_P1;PMS_P2;Temp;Humidity;BMP_temperature;BMP_pressure;BME280_temperature;BME280_humidity;BME280_pressure;Samples;Min_cycle;Max_cycle;Signal;HPM_P1;HPM_P2
2023/06/08 00:02:11;;;;;;;57.63;2.60;;;;;;;;;;5051071;28;20477;-67
2023/06/08 00:04:40;;;;;;;57.53;2.63;;;;;;;;;;5051331;28;20847;-67
2023/06/08 00:07:10;;;;;;;57.37;2.53;;;;;;;;;;5051076;28;20569;-67
2023/06/08 00:09:39;;;;;;;57.47;2.50;;;;;;;;;;5050335;28;20436;-66
2023/06/08 00:12:06;;;;;;;58.10;3.00;;;;;;;;;;5051330;28;20470;-67
2023/06/08 00:14:35;;;;;;;58.20;2.70;;;;;;;;;;5050752;28;20819;-67
2023/06/08 00:17:03;;;;;;;57.47;2.60;;;;;;;;;;5050746;28;20993;-67
2023/06/08 00:19:30;;;;;;;57.27;2.40;;;;;;;;;;5050161;28;20952;-67
2023/06/08 00:21:58;;;;;;;57.77;3.13;;;;;;;;;;5050701;28;20980;-67
2023/06/08 00:24:26;;;;;;;57.27;2.30;;;;;;;;;;5051579;28;20863;-67
2023/06/08 00:26:54;;;;;;;57.67;2.67;;;;;;;;;;5054896;28;20451;-67
2023/06/08 00:29:21;;;;;;;57.63;2.83;;;;;;;;;;5054251;28;20476;-67
2023/06/08 00:31:48;;;;;;;57.47;2.77;;;;;;;;;;5054882;28;20448;-66
2023/06/08 00:34:16;;;;;;;57.87;2.90;;;;;;;;;;5054633;28;20963;-67
2023/06/08 00:36:43;;;;;;;57.80;2.47;;;;;;;;;;5054726;28;20491;-67
2023/06/08 00:39:10;;;;;;;57.67;2.57;;;;;;;;;;5053982;28;20455;-67
2023/06/08 00:41:37;;;;;;;58.00;3.07;;;;;;;;;;5054563;28;20448;-67
2023/06/08 00:44:07;;;;;;;57.90;2.80;;;;;;;;;;5054766;28;20452;-67
2023/06/08 00:46:34;;;;;;;57.20;2.40;;;;;;;;;;5054440;28;20973;-67
2023/06/08 00:49:02;;;;;;;57.57;2.50;;;;;;;;;;5053805;28;20455;-67
2023/06/08 00:51:33;;;;;;;57.10;2.27;;;;;;;;;;5054353;28;20452;-66
2023/06/08 00:54:00;;;;;;;57.77;2.60;;;;;;;;;;5054226;28;20944;-67
2023/06/08 00:56:31;;;;;;;57.50;2.40;;;;;;;;;;5054034;28;20495;-66
2023/06/08 00:59:00;;;;;;;57.27;2.20;;;;;;;;;;5053818;28;20510;-67
2023/06/08 01:01:29;;;;;;;58.47;3.70;;;;;;;;;;5054379;28;20458;-67
2023/06/08 01:04:05;;;;;;;57.47;2.67;;;;;;;;;;5054373;28;20468;-66
2023/06/08 01:06:32;;;;;;;57.40;2.40;;;;;;;;;;5054000;28;20448;-67
2023/06/08 01:09:03;;;;;;;58.20;3.00;;;;;;;;;;5053368;28;21011;-67
2023/06/08 01:11:34;;;;;;;57.43;2.57;;;;;;;;;;5053979;28;20439;-66
2023/06/08 01:14:05;;;;;;;57.20;2.30;;;;;;;;;;5054219;28;20471;-66
2023/06/08 01:16:36;;;;;;;57.50;2.97;;;;;;;;;;5050768;28;20490;-67
2023/06/08 01:19:08;;;;;;;57.37;2.40;;;;;;;;;;5053229;28;20432;-67
2023/06/08 01:21:42;;;;;;;58.90;2.53;;;;;;;;;;5053780;28;20436;-67
2023/06/08 01:24:12;;;;;;;57.47;2.73;;;;;;;;;;5053880;28;20456;-66
2023/06/08 01:26:40;;;;;;;57.33;2.50;;;;;;;;;;5053994;28;20436;-67
2023/06/08 01:29:09;;;;;;;57.40;2.30;;;;;;;;;;5052996;28;20452;-67
2023/06/08 01:31:37;;;;;;;58.10;2.57;;;;;;;;;;5053728;28;20448;-66
2023/06/08 01:34:05;;;;;;;57.10;2.30;;;;;;;;;;5053833;28;20456;-67
2023/06/08 01:36:36;;;;;;;58.00;3.00;;;;;;;;;;5052944;28;20480;-67
2023/06/08 01:39:05;;;;;;;57.87;2.90;;;;;;;;;;5052851;28;20486;-67
2023/06/08 01:41:35;;;;;;;57.57;2.83;;;;;;;;;;5053600;28;20482;-67
2023/06/08 01:44:03;;;;;;;58.10;3.20;;;;;;;;;;5053487;28;21091;-66
2023/06/08 01:46:32;;;;;;;57.70;2.40;;;;;;;;;;5053422;28;20835;-66
2023/06/08 01:49:01;;;;;;;57.47;2.60;;;;;;;;;;5052941;28;20444;-67
2023/06/08 01:51:28;;;;;;;57.70;2.57;;;;;;;;;;5053176;28;20976;-67
2023/06/08 01:54:06;;;;;;;58.10;2.60;;;;;;;;;;5053489;28;20483;-66
2023/06/08 01:56:35;;;;;;;62.03;6.00;;;;;;;;;;5053041;28;20499;-67
2023/06/08 01:59:02;;;;;;;57.57;2.53;;;;;;;;;;5052722;28;20444;-67
2023/06/08 02:01:29;;;;;;;57.57;2.97;;;;;;;;;;5053132;28;20452;-67
2023/06/08 02:03:56;;;;;;;57.13;2.50;;;;;;;;;;5053164;28;20543;-67
2023/06/08 02:06:23;;;;;;;59.13;3.63;;;;;;;;;;5053233;28;20451;-66
2023/06/08 02:08:50;;;;;;;57.27;2.17;;;;;;;;;;5052434;28;20452;-66
2023/06/08 02:11:18;;;;;;;57.67;3.10;;;;;;;;;;5053101;28;20562;-67
2023/06/08 02:13:46;;;;;;;57.40;2.37;;;;;;;;;;5052896;28;20859;-67
2023/06/08 02:16:13;;;;;;;58.50;3.80;;;;;;;;;;5052605;28;20945;-67
2023/06/08 02:18:41;;;;;;;57.50;2.60;;;;;;;;;;5051932;28;20462;-66
2023/06/08 02:21:08;;;;;;;57.23;2.30;;;;;;;;;;5052943;28;20452;-66
2023/06/08 02:23:35;;;;;;;57.43;2.60;;;;;;;;;;5052574;28;21014;-66
2023/06/08 02:26:03;;;;;;;57.47;2.33;;;;;;;;;;5052637;28;20459;-67
2023/06/08 02:28:30;;;;;;;57.70;2.80;;;;;;;;;;5052884;28;20440;-66
2023/06/08 02:30:58;;;;;;;57.30;2.20;;;;;;;;;;5052150;28;20961;-67
2023/06/08 02:33:26;;;;;;;57.27;2.30;;;;;;;;;;5052737;28;20479;-67
2023/06/08 02:35:53;;;;;;;57.47;2.70;;;;;;;;;;5052534;28;20444;-67
2023/06/08 02:38:20;;;;;;;58.10;3.27;;;;;;;;;;5052466;28;20488;-66
2023/06/08 02:40:47;;;;;;;57.17;2.20;;;;;;;;;;5051712;28;20957;-66
2023/06/08 02:43:14;;;;;;;57.27;2.47;;;;;;;;;;5052534;28;20471;-67
2023/06/08 02:45:42;;;;;;;57.47;2.40;;;;;;;;;;5052093;28;20460;-67
2023/06/08 02:48:10;;;;;;;57.40;2.60;;;;;;;;;;5051231;28;20448;-66
2023/06/08 02:50:37;;;;;;;57.60;2.47;;;;;;;;;;5051750;28;20484;-66
2023/06/08 02:53:04;;;;;;;57.23;2.30;;;;;;;;;;5052075;28;21107;-66
2023/06/08 02:55:34;;;;;;;57.80;2.60;;;;;;;;;;5051823;28;20514;-67
2023/06/08 02:58:02;;;;;;;57.20;2.07;;;;;;;;;;5051883;28;20483;-66
2023/06/08 03:00:30;;;;;;;57.60;2.50;;;;;;;;;;5051254;28;20541;-66
2023/06/08 03:02:59;;;;;;;57.47;2.70;;;;;;;;;;5052171;28;20468;-67
2023/06/08 03:05:29;;;;;;;57.30;2.50;;;;;;;;;;5051840;28;20823;-67
2023/06/08 03:07:59;;;;;;;57.27;2.23;;;;;;;;;;5052486;28;20444;-66
2023/06/08 03:10:26;;;;;;;57.90;3.50;;;;;;;;;;5051445;28;20806;-66
2023/06/08 03:12:53;;;;;;;58.00;3.00;;;;;;;;;;5051933;28;20472;-66
2023/06/08 03:15:23;;;;;;;57.37;2.60;;;;;;;;;;5051631;28;20448;-66
2023/06/08 03:17:51;;;;;;;57.60;2.40;;;;;;;;;;5051656;28;20484;-67
2023/06/08 03:20:18;;;;;;;58.57;2.60;;;;;;;;;;5050901;28;20459;-67
2023/06/08 03:22:47;;;;;;;57.37;2.70;;;;;;;;;;5051777;28;20464;-67
2023/06/08 03:25:15;;;;;;;57.63;2.80;;;;;;;;;;5051596;28;20444;-67
2023/06/08 03:27:42;;;;;;;58.50;2.80;;;;;;;;;;5051974;28;20452;-67
2023/06/08 03:30:10;;;;;;;57.67;3.20;;;;;;;;;;5050737;28;20444;-67
2023/06/08 03:32:37;;;;;;;57.63;2.60;;;;;;;;;;5051607;28;20476;-67
2023/06/08 03:35:05;;;;;;;57.60;2.60;;;;;;;;;;5051473;28;20460;-67
2023/06/08 03:37:32;;;;;;;57.27;2.43;;;;;;;;;;5051099;28;20483;-67
2023/06/08 03:40:00;;;;;;;57.43;2.50;;;;;;;;;;5050782;28;20455;-67
2023/06/08 03:42:27;;;;;;;57.60;3.10;;;;;;;;;;5051394;28;20567;-67
2023/06/08 03:44:54;;;;;;;58.00;2.87;;;;;;;;;;5051522;28;20459;-67
2023/06/08 03:47:21;;;;;;;57.30;2.40;;;;;;;;;;5051114;28;20822;-67
2023/06/08 03:49:49;;;;;;;57.17;2.60;;;;;;;;;;5050741;28;20452;-67
2023/06/08 03:52:16;;;;;;;57.50;2.53;;;;;;;;;;5050873;28;20464;-67
2023/06/08 03:54:43;;;;;;;60.60;2.63;;;;;;;;;;5051056;28;20460;-67
2023/06/08 03:57:11;;;;;;;57.17;2.40;;;;;;;;;;5050912;28;20514;-67
2023/06/08 03:59:39;;;;;;;57.43;2.60;;;;;;;;;;5050302;28;20499;-67
2023/06/08 04:02:06;;;;;;;57.37;2.50;;;;;;;;;;5050875;28;20468;-67
2023/06/08 04:04:34;;;;;;;57.40;2.53;;;;;;;;;;5051027;28;20546;-67
2023/06/08 04:07:02;;;;;;;57.30;2.87;;;;;;;;;;5051171;28;20452;-69
2023/06/08 04:09:29;;;;;;;57.17;2.60;;;;;;;;;;5050511;28;20462;-67
2023/06/08 04:11:56;;;;;;;57.40;2.87;;;;;;;;;;5051124;28;20844;-67
2023/06/08 04:14:25;;;;;;;61.30;3.27;;;;;;;;;;5051160;28;20506;-67
2023/06/08 04:16:52;;;;;;;57.20;2.50;;;;;;;;;;5050836;28;20773;-67
2023/06/08 04:19:19;;;;;;;57.37;2.53;;;;;;;;;;5050074;28;20448;-67
2023/06/08 04:21:46;;;;;;;57.77;2.37;;;;;;;;;;5050918;28;20543;-67
2023/06/08 04:24:13;;;;;;;57.10;2.27;;;;;;;;;;5050974;28;20467;-67
2023/06/08 04:26:40;;;;;;;57.80;2.93;;;;;;;;;;5050740;28;20448;-67
2023/06/08 04:29:08;;;;;;;57.03;2.23;;;;;;;;;;5050046;28;20952;-67
2023/06/08 04:31:36;;;;;;;57.30;2.30;;;;;;;;;;5050645;28;20937;-67
2023/06/08 04:34:03;;;;;;;57.57;2.70;;;;;;;;;;5051006;28;20448;-67
2023/06/08 04:36:31;;;;;;;57.67;3.00;;;;;;;;;;5050536;28;20452;-67
2023/06/08 04:38:58;;;;;;;57.50;2.50;;;;;;;;;;5049912;28;20488;-67
2023/06/08 04:41:28;;;;;;;58.00;3.47;;;;;;;;;;5050936;28;20455;-67
2023/06/08 04:44:01;;;;;;;57.60;2.97;;;;;;;;;;5050749;28;20815;-67
2023/06/08 04:46:28;;;;;;;57.60;2.67;;;;;;;;;;5050982;28;20766;-67
2023/06/08 04:48:57;;;;;;;58.10;3.10;;;;;;;;;;5050116;28;20444;-67
2023/06/08 04:51:24;;;;;;;57.40;3.07;;;;;;;;;;5050843;28;20827;-67
2023/06/08 04:53:54;;;;;;;57.47;2.60;;;;;;;;;;5050593;28;20845;-67
2023/06/08 04:56:21;;;;;;;57.50;2.73;;;;;;;;;;5050524;28;20464;-67
2023/06/08 04:58:48;;;;;;;57.80;2.90;;;;;;;;;;5049654;28;20492;-67
2023/06/08 05:01:15;;;;;;;59.50;3.50;;;;;;;;;;5050749;28;20444;-67
2023/06/08 05:03:43;;;;;;;57.20;2.40;;;;;;;;;;5050321;28;20467;-67
2023/06/08 05:06:11;;;;;;;56.97;2.07;;;;;;;;;;5050647;28;20444;-67
2023/06/08 05:08:38;;;;;;;57.40;2.50;;;;;;;;;;5049711;28;20440;-67
2023/06/08 05:11:05;;;;;;;57.30;2.40;;;;;;;;;;5050581;28;20463;-67
2023/06/08 05:13:33;;;;;;;57.27;2.90;;;;;;;;;;5053738;28;20476;-67
2023/06/08 05:16:00;;;;;;;58.17;2.60;;;;;;;;;;5053924;28;20467;-67
2023/06/08 05:18:27;;;;;;;57.27;2.30;;;;;;;;;;5053709;28;20490;-67
2023/06/08 05:20:54;;;;;;;57.20;2.70;;;;;;;;;;5053597;28;20452;-67
2023/06/08 05:23:23;;;;;;;57.97;3.60;;;;;;;;;;5053874;28;20468;-67
2023/06/08 05:25:50;;;;;;;57.67;2.77;;;;;;;;;;5053609;28;20452;-67
2023/06/08 05:28:18;;;;;;;57.17;2.40;;;;;;;;;;5053857;28;20448;-67
2023/06/08 05:30:45;;;;;;;57.13;2.57;;;;;;;;;;5053363;28;20485;-67
2023/06/08 05:33:12;;;;;;;56.87;2.13;;;;;;;;;;5053791;28;20464;-67
2023/06/08 05:35:40;;;;;;;57.27;2.83;;;;;;;;;;5053456;28;20975;-67
2023/06/08 05:38:07;;;;;;;56.97;2.50;;;;;;;;;;5053445;28;20476;-67
2023/06/08 05:40:35;;;;;;;57.80;3.70;;;;;;;;;;5052980;28;20846;-67
2023/06/08 05:43:02;;;;;;;57.57;2.60;;;;;;;;;;5053725;28;20852;-67
2023/06/08 05:45:29;;;;;;;56.97;2.17;;;;;;;;;;5053519;28;20444;-67
2023/06/08 05:47:56;;;;;;;58.07;3.87;;;;;;;;;;5053483;28;20447;-67
2023/06/08 05:50:24;;;;;;;57.97;2.90;;;;;;;;;;5052327;28;20450;-67
2023/06/08 05:52:51;;;;;;;58.30;3.00;;;;;;;;;;5053086;28;20476;-67
2023/06/08 05:55:18;;;;;;;57.10;2.40;;;;;;;;;;5052937;28;20456;-67
2023/06/08 05:57:46;;;;;;;57.50;2.77;;;;;;;;;;5053391;28;20491;-67
2023/06/08 06:00:14;;;;;;;57.63;2.63;;;;;;;;;;5052292;28;20452;-67
2023/06/08 06:02:42;;;;;;;57.20;2.70;;;;;;;;;;5052882;28;20479;-67
2023/06/08 06:05:10;;;;;;;57.40;2.90;;;;;;;;;;5053182;28;20448;-67
2023/06/08 06:07:37;;;;;;;56.97;2.13;;;;;;;;;;5052771;28;20452;-67
2023/06/08 06:10:04;;;;;;;57.37;2.40;;;;;;;;;;5052147;28;20448;-67
2023/06/08 06:12:31;;;;;;;57.50;2.67;;;;;;;;;;5053019;28;20510;-67
2023/06/08 06:15:00;;;;;;;57.07;2.27;;;;;;;;;;5053049;28;20802;-67
2023/06/08 06:17:27;;;;;;;57.07;2.70;;;;;;;;;;5052832;28;20448;-67
2023/06/08 06:19:54;;;;;;;57.40;2.87;;;;;;;;;;5052237;28;20841;-67
2023/06/08 06:22:21;;;;;;;57.20;2.50;;;;;;;;;;5053041;28;20471;-67
2023/06/08 06:24:48;;;;;;;57.20;2.53;;;;;;;;;;5052956;28;20441;-67
2023/06/08 06:27:15;;;;;;;57.37;3.13;;;;;;;;;;5052691;28;20860;-67
2023/06/08 06:29:42;;;;;;;57.03;2.20;;;;;;;;;;5051846;28;20932;-67
2023/06/08 06:32:11;;;;;;;57.07;2.20;;;;;;;;;;5052845;28;20490;-67
2023/06/08 06:34:38;;;;;;;58.07;3.23;;;;;;;;;;5052646;28;20551;-67
2023/06/08 06:37:06;;;;;;;57.70;2.77;;;;;;;;;;5052378;28;20933;-67
2023/06/08 06:39:33;;;;;;;57.13;2.40;;;;;;;;;;5051745;28;20578;-67
2023/06/08 06:42:01;;;;;;;57.50;2.50;;;;;;;;;;5052444;28;20490;-67
2023/06/08 06:44:28;;;;;;;57.07;2.40;;;;;;;;;;5052304;28;20462;-67
2023/06/08 06:46:56;;;;;;;57.37;2.60;;;;;;;;;;5052263;28;20960;-67
2023/06/08 06:49:24;;;;;;;57.87;3.60;;;;;;;;;;5051433;28;20448;-67
2023/06/08 06:51:51;;;;;;;57.10;2.50;;;;;;;;;;5052265;28;20460;-67
2023/06/08 06:54:18;;;;;;;57.40;2.93;;;;;;;;;;5052010;28;20961;-67
2023/06/08 06:56:45;;;;;;;57.27;2.70;;;;;;;;;;5051880;28;20461;-67
2023/06/08 06:59:14;;;;;;;58.57;3.10;;;;;;;;;;5051566;28;20825;-67
2023/06/08 07:01:41;;;;;;;57.70;2.60;;;;;;;;;;5051836;28;20513;-67
2023/06/08 07:04:09;;;;;;;58.97;2.90;;;;;;;;;;5052053;28;20452;-67
2023/06/08 07:06:37;;;;;;;57.20;2.40;;;;;;;;;;5052190;28;20475;-67
2023/06/08 07:09:05;;;;;;;58.00;2.70;;;;;;;;;;5051155;28;20453;-67
2023/06/08 07:11:32;;;;;;;56.67;2.10;;;;;;;;;;5051904;28;20499;-67
2023/06/08 07:13:59;;;;;;;57.27;2.37;;;;;;;;;;5051559;28;21011;-67
2023/06/08 07:16:26;;;;;;;57.30;2.50;;;;;;;;;;5051929;28;20452;-67
2023/06/08 07:18:53;;;;;;;57.17;2.43;;;;;;;;;;5051108;28;20480;-67
2023/06/08 07:21:21;;;;;;;57.17;2.30;;;;;;;;;;5051793;28;20797;-67
2023/06/08 07:23:50;;;;;;;56.83;2.00;;;;;;;;;;5051840;28;20559;-67
2023/06/08 07:26:17;;;;;;;57.00;2.30;;;;;;;;;;5051731;28;20454;-68
2023/06/08 07:28:45;;;;;;;57.20;2.50;;;;;;;;;;5050623;28;20448;-67
2023/06/08 07:31:12;;;;;;;57.13;2.30;;;;;;;;;;5051659;28;20583;-67
2023/06/08 07:33:39;;;;;;;57.30;2.93;;;;;;;;;;5051356;28;20480;-67
2023/06/08 07:36:07;;;;;;;57.27;2.37;;;;;;;;;;5050996;28;20448;-67
2023/06/08 07:38:34;;;;;;;57.07;2.33;;;;;;;;;;5050632;28;20856;-67
2023/06/08 07:41:02;;;;;;;56.97;2.30;;;;;;;;;;5051445;28;20455;-67
2023/06/08 07:43:30;;;;;;;56.77;2.23;;;;;;;;;;5051061;28;20486;-66
2023/06/08 07:45:57;;;;;;;57.37;2.17;;;;;;;;;;5051328;28;20449;-67
2023/06/08 07:48:24;;;;;;;57.27;2.30;;;;;;;;;;5051115;28;20441;-67
2023/06/08 07:50:51;;;;;;;56.97;2.27;;;;;;;;;;5050476;28;20482;-67
2023/06/08 07:53:18;;;;;;;57.20;2.10;;;;;;;;;;5051426;28;20487;-67
2023/06/08 07:55:46;;;;;;;57.07;2.60;;;;;;;;;;5050948;28;20478;-67
2023/06/08 07:58:14;;;;;;;56.93;2.23;;;;;;;;;;5051480;28;20518;-67
2023/06/08 08:00:41;;;;;;;57.40;2.80;;;;;;;;;;5050590;28;20444;-67
2023/06/08 08:03:08;;;;;;;57.37;2.50;;;;;;;;;;5051030;28;20479;-67
2023/06/08 08:05:35;;;;;;;57.60;2.97;;;;;;;;;;5050782;28;20459;-67
2023/06/08 08:08:02;;;;;;;57.17;2.20;;;;;;;;;;5051229;28;20765;-67
2023/06/08 08:10:29;;;;;;;56.97;2.20;;;;;;;;;;5050384;28;20455;-67
2023/06/08 08:12:57;;;;;;;57.17;2.60;;;;;;;;;;5050770;28;21014;-67
2023/06/08 08:15:26;;;;;;;57.70;2.57;;;;;;;;;;5051071;28;20448;-67
2023/06/08 08:17:53;;;;;;;56.90;2.27;;;;;;;;;;5050887;28;21059;-67
2023/06/08 08:20:20;;;;;;;57.57;2.27;;;;;;;;;;5050048;28;20492;-67
2023/06/08 08:22:47;;;;;;;56.97;2.20;;;;;;;;;;5050788;28;20480;-67
2023/06/08 08:25:14;;;;;;;57.63;2.50;;;;;;;;;;5050727;28;20452;-67
2023/06/08 08:27:42;;;;;;;56.97;2.30;;;;;;;;;;5050891;28;20444;-67
2023/06/08 08:30:09;;;;;;;57.30;2.17;;;;;;;;;;5050070;28;20956;-67
2023/06/08 08:32:37;;;;;;;57.00;2.57;;;;;;;;;;5050928;28;20479;-68
2023/06/08 08:35:05;;;;;;;58.07;2.53;;;;;;;;;;5051358;28;20770;-67
2023/06/08 08:37:32;;;;;;;57.87;2.97;;;;;;;;;;5050747;28;20452;-67
2023/06/08 08:39:59;;;;;;;56.97;2.43;;;;;;;;;;5050055;28;20495;-67
2023/06/08 08:42:28;;;;;;;58.27;3.13;;;;;;;;;;5050988;28;20498;-67
2023/06/08 08:44:56;;;;;;;57.90;2.70;;;;;;;;;;5050582;28;20448;-67
2023/06/08 08:47:26;;;;;;;57.20;2.40;;;;;;;;;;5052688;28;20493;-67
2023/06/08 08:49:57;;;;;;;56.97;2.30;;;;;;;;;;5054400;28;20444;-67
2023/06/08 08:52:29;;;;;;;56.67;2.60;;;;;;;;;;5054484;28;20526;-67
2023/06/08 08:54:57;;;;;;;57.03;2.40;;;;;;;;;;5054556;28;20454;-67
2023/06/08 08:57:27;;;;;;;57.47;2.60;;;;;;;;;;5054206;28;20502;-67
2023/06/08 08:59:55;;;;;;;57.10;2.40;;;;;;;;;;5053588;28;20479;-67
2023/06/08 09:02:22;;;;;;;57.00;2.70;;;;;;;;;;5054081;28;20464;-67
2023/06/08 09:04:49;;;;;;;57.20;2.20;;;;;;;;;;5054330;28;20455;-67
2023/06/08 09:07:20;;;;;;;57.20;2.27;;;;;;;;;;5054057;28;20956;-67
2023/06/08 09:10:05;;;;;;;58.07;2.87;;;;;;;;;;5053821;28;20884;-67
2023/06/08 09:12:39;;;;;;;56.57;2.30;;;;;;;;;;5053985;28;20476;-67
2023/06/08 09:15:07;;;;;;;57.00;2.57;;;;;;;;;;5054137;28;20440;-67
2023/06/08 09:17:38;;;;;;;56.93;2.80;;;;;;;;;;5054135;28;20456;-67
2023/06/08 09:20:06;;;;;;;58.13;2.93;;;;;;;;;;5053374;28;20468;-67
2023/06/08 09:22:36;;;;;;;56.97;2.60;;;;;;;;;;5054208;28;20828;-67
2023/06/08 09:25:41;;;;;;;56.97;2.30;;;;;;;;;;5053865;28;20956;-67
2023/06/08 09:28:15;;;;;;;57.30;2.40;;;;;;;;;;5054061;28;20448;-67
2023/06/08 09:30:43;;;;;;;58.43;3.23;;;;;;;;;;5053335;28;20443;-67
2023/06/08 09:33:20;;;;;;;56.77;2.30;;;;;;;;;;5053923;28;20487;-67
2023/06/08 09:35:47;;;;;;;58.53;2.50;;;;;;;;;;5053771;28;20448;-67
2023/06/08 09:38:18;;;;;;;57.30;2.60;;;;;;;;;;5053719;28;20801;-67
2023/06/08 09:40:46;;;;;;;57.10;1.97;;;;;;;;;;5053088;28;20476;-67
2023/06/08 09:43:13;;;;;;;57.40;2.80;;;;;;;;;;5053284;28;20476;-67
2023/06/08 09:45:44;;;;;;;57.50;2.83;;;;;;;;;;5053619;28;20456;-67
2023/06/08 09:48:13;;;;;;;56.87;2.23;;;;;;;;;;5053745;28;20428;-67
2023/06/08 09:50:40;;;;;;;57.20;2.87;;;;;;;;;;5052867;28;20539;-67
2023/06/08 09:53:07;;;;;;;56.90;2.30;;;;;;;;;;5053262;28;20995;-67
2023/06/08 09:55:37;;;;;;;57.27;2.47;;;;;;;;;;5053292;28;20477;-67
2023/06/08 09:58:05;;;;;;;57.30;2.60;;;;;;;;;;5052802;28;20877;-67
2023/06/08 10:00:34;;;;;;;56.67;2.50;;;;;;;;;;5052293;28;21027;-67
2023/06/08 10:03:09;;;;;;;57.40;2.17;;;;;;;;;;5052976;28;20479;-67
2023/06/08 10:05:38;;;;;;;56.90;2.40;;;;;;;;;;5053198;28;20519;-67
2023/06/08 10:08:06;;;;;;;57.70;2.40;;;;;;;;;;5053567;28;20522;-67
2023/06/08 10:10:36;;;;;;;56.90;2.40;;;;;;;;;;5052495;28;20887;-67
2023/06/08 10:13:05;;;;;;;57.40;2.70;;;;;;;;;;5052940;28;20571;-67
2023/06/08 10:15:33;;;;;;;56.90;2.87;;;;;;;;;;5052810;28;20527;-67
2023/06/08 10:18:00;;;;;;;56.77;2.20;;;;;;;;;;5052736;28;20495;-67
2023/06/08 10:20:28;;;;;;;56.60;2.30;;;;;;;;;;5052144;28;21074;-68
2023/06/08 10:22:56;;;;;;;56.80;2.43;;;;;;;;;;5053074;28;20882;-67
2023/06/08 10:25:27;;;;;;;56.50;1.90;;;;;;;;;;5052572;28;20455;-68
2023/06/08 10:27:54;;;;;;;56.60;2.20;;;;;;;;;;5052505;28;20499;-67
2023/06/08 10:30:30;;;;;;;56.50;2.40;;;;;;;;;;5052153;28;20446;-68
2023/06/08 10:33:08;;;;;;;56.10;2.10;;;;;;;;;;5052484;28;20968;-68
2023/06/08 10:35:35;;;;;;;56.07;1.90;;;;;;;;;;5052382;28;20923;-68
2023/06/08 10:38:09;;;;;;;56.33;2.40;;;;;;;;;;5052801;28;20881;-68
2023/06/08 10:40:42;;;;;;;55.67;1.83;;;;;;;;;;5051410;28;20860;-68
2023/06/08 10:43:09;;;;;;;55.87;2.13;;;;;;;;;;5052475;28;20558;-68
2023/06/08 10:45:39;;;;;;;55.80;1.83;;;;;;;;;;5052573;28;20519;-68
2023/06/08 10:48:08;;;;;;;55.80;2.20;;;;;;;;;;5052492;28;20459;-68
2023/06/08 10:50:37;;;;;;;56.17;2.47;;;;;;;;;;5051353;28;20449;-68
2023/06/08 10:53:04;;;;;;;55.70;2.37;;;;;;;;;;5051849;28;21072;-68
2023/06/08 10:55:32;;;;;;;57.57;2.57;;;;;;;;;;5052263;28;20448;-68
2023/06/08 10:58:06;;;;;;;55.77;2.37;;;;;;;;;;5052336;28;20547;-68
2023/06/08 11:00:42;;;;;;;55.30;1.80;;;;;;;;;;5051314;28;20487;-68
2023/06/08 11:03:11;;;;;;;56.50;2.47;;;;;;;;;;5052036;28;21062;-68
2023/06/08 11:05:40;;;;;;;55.77;2.27;;;;;;;;;;5051797;28;20487;-68
2023/06/08 11:08:08;;;;;;;55.97;2.23;;;;;;;;;;5051939;28;20448;-68
2023/06/08 11:10:38;;;;;;;55.33;1.87;;;;;;;;;;5050412;28;20444;-68
2023/06/08 11:13:05;;;;;;;56.77;3.20;;;;;;;;;;5052040;28;20486;-69
2023/06/08 11:15:33;;;;;;;55.67;2.03;;;;;;;;;;5051625;28;20448;-68
2023/06/08 11:18:00;;;;;;;56.27;2.50;;;;;;;;;;5051975;28;20433;-68
2023/06/08 11:20:28;;;;;;;55.47;2.10;;;;;;;;;;5051171;28;20440;-68
2023/06/08 11:22:56;;;;;;;56.00;2.83;;;;;;;;;;5051981;28;20463;-68
2023/06/08 11:25:24;;;;;;;55.47;2.03;;;;;;;;;;5051640;28;20448;-66
2023/06/08 11:27:53;;;;;;;56.00;2.37;;;;;;;;;;5051632;28;20451;-66
2023/06/08 11:30:20;;;;;;;55.67;2.47;;;;;;;;;;5050753;28;20847;-67
2023/06/08 11:32:48;;;;;;;55.40;1.83;;;;;;;;;;5051285;28;20680;-67
2023/06/08 11:35:15;;;;;;;55.33;2.60;;;;;;;;;;5051611;28;20794;-67
2023/06/08 11:37:44;;;;;;;55.50;2.50;;;;;;;;;;5051415;28;20969;-67
2023/06/08 11:40:12;;;;;;;55.20;2.20;;;;;;;;;;5050988;28;20440;-68
2023/06/08 11:42:39;;;;;;;55.73;2.97;;;;;;;;;;5051206;28;20576;-68
2023/06/08 11:45:07;;;;;;;56.10;2.67;;;;;;;;;;5051098;28;20448;-68
2023/06/08 11:47:35;;;;;;;55.30;2.33;;;;;;;;;;5051360;28;20502;-68
2023/06/08 11:50:03;;;;;;;55.87;2.50;;;;;;;;;;5050859;28;20587;-68
2023/06/08 11:52:33;;;;;;;55.20;2.17;;;;;;;;;;5051298;28;20468;-68
2023/06/08 11:55:03;;;;;;;55.57;2.60;;;;;;;;;;5051341;28;20455;-67
2023/06/08 11:57:41;;;;;;;55.80;2.60;;;;;;;;;;5050980;28;20567;-68
2023/06/08 12:00:09;;;;;;;55.43;2.53;;;;;;;;;;5050565;28;20455;-68
2023/06/08 12:02:37;;;;;;;55.60;2.57;;;;;;;;;;5051187;28;20473;-67
2023/06/08 12:05:04;;;;;;;55.57;2.50;;;;;;;;;;5051431;28;20454;-67
2023/06/08 12:07:32;;;;;;;55.30;2.30;;;;;;;;;;5051005;28;20456;-68
2023/06/08 12:10:00;;;;;;;55.40;2.30;;;;;;;;;;5050128;28;20893;-67
2023/06/08 12:12:31;;;;;;;55.93;2.43;;;;;;;;;;5050727;28;20586;-68
2023/06/08 12:14:59;;;;;;;56.10;2.20;;;;;;;;;;5051156;28;20445;-68
2023/06/08 12:17:27;;;;;;;56.67;2.53;;;;;;;;;;5050736;28;20447;-68
2023/06/08 12:19:54;;;;;;;57.77;2.73;;;;;;;;;;5050182;28;20547;-67
2023/06/08 12:22:21;;;;;;;56.20;2.00;;;;;;;;;;5054542;28;20467;-67
2023/06/08 12:24:49;;;;;;;56.80;2.20;;;;;;;;;;5054954;28;20455;-67
2023/06/08 12:27:16;;;;;;;56.73;2.27;;;;;;;;;;5054970;28;20448;-67
2023/06/08 12:29:49;;;;;;;57.93;2.57;;;;;;;;;;5054334;28;20483;-67
2023/06/08 12:32:17;;;;;;;57.50;2.80;;;;;;;;;;5055222;28;20468;-67
2023/06/08 12:34:44;;;;;;;57.90;2.80;;;;;;;;;;5054640;28;20456;-67
2023/06/08 12:37:12;;;;;;;57.30;2.30;;;;;;;;;;5054710;28;20443;-67
2023/06/08 12:39:39;;;;;;;58.57;3.67;;;;;;;;;;5054409;28;20799;-67
2023/06/08 12:42:07;;;;;;;57.57;2.70;;;;;;;;;;5054827;28;20472;-66
2023/06/08 12:44:35;;;;;;;57.87;2.57;;;;;;;;;;5054714;28;20879;-66
2023/06/08 12:53:11;;;;;;;58.43;3.30;;;;;;;;;;5050698;28;20462;-66
2023/06/08 12:55:38;;;;;;;57.80;3.07;;;;;;;;;;5054359;28;20462;-66
2023/06/08 12:58:05;;;;;;;58.90;3.50;;;;;;;;;;5054644;28;20470;-65
2023/06/08 13:00:35;;;;;;;65.87;6.13;;;;;;;;;;5053514;28;20440;-66
2023/06/08 13:06:05;;;;;;;57.53;2.50;;;;;;;;;;5050923;28;20388;-65
2023/06/08 13:08:34;;;;;;;58.10;3.07;;;;;;;;;;5053555;28;20956;-66
2023/06/08 13:11:01;;;;;;;57.67;2.50;;;;;;;;;;5054310;28;20492;-66
2023/06/08 13:13:28;;;;;;;58.50;4.03;;;;;;;;;;5053849;28;20996;-66
2023/06/08 13:15:56;;;;;;;58.60;3.93;;;;;;;;;;5054206;28;20444;-66
2023/06/08 13:18:23;;;;;;;57.90;2.60;;;;;;;;;;5054220;28;20531;-66
2023/06/08 13:20:53;;;;;;;57.90;3.47;;;;;;;;;;5053330;28;20800;-66
2023/06/08 13:23:21;;;;;;;57.90;2.97;;;;;;;;;;5054009;28;20479;-66
2023/06/08 13:28:53;;;;;;;57.87;2.70;;;;;;;;;;5049388;28;20877;-66
2023/06/08 13:31:20;;;;;;;57.87;3.13;;;;;;;;;;5053742;28;20583;-66
2023/06/08 13:33:47;;;;;;;58.83;3.27;;;;;;;;;;5052902;28;20828;-66
2023/06/08 13:36:14;;;;;;;57.80;3.03;;;;;;;;;;5053882;28;20538;-66
2023/06/08 13:38:41;;;;;;;58.70;3.70;;;;;;;;;;5052710;28;20452;-66
2023/06/08 13:41:09;;;;;;;57.53;2.57;;;;;;;;;;5053716;28;20450;-66
2023/06/08 13:43:36;;;;;;;57.33;2.90;;;;;;;;;;5053465;28;20985;-66
2023/06/08 13:46:05;;;;;;;58.30;3.30;;;;;;;;;;5053735;28;20535;-66
2023/06/08 13:48:32;;;;;;;58.00;2.87;;;;;;;;;;5053146;28;20471;-67
2023/06/08 13:50:59;;;;;;;57.70;3.00;;;;;;;;;;5053478;28;20451;-66
2023/06/08 13:53:28;;;;;;;57.67;3.03;;;;;;;;;;5053247;28;21014;-68
2023/06/08 13:55:55;;;;;;;57.50;2.60;;;;;;;;;;5053190;28;20472;-68
2023/06/08 13:58:22;;;;;;;57.57;2.83;;;;;;;;;;5053175;28;20941;-65
2023/06/08 14:00:50;;;;;;;57.80;3.37;;;;;;;;;;5052609;28;20480;-65
2023/06/08 14:03:18;;;;;;;58.40;3.77;;;;;;;;;;5053161;28;20479;-65
2023/06/08 14:05:45;;;;;;;58.40;4.37;;;;;;;;;;5053231;28;20452;-65
2023/06/08 14:08:12;;;;;;;58.17;3.10;;;;;;;;;;5053410;28;20452;-65
2023/06/08 14:10:40;;;;;;;59.00;4.07;;;;;;;;;;5052686;28;20455;-65
2023/06/08 14:13:07;;;;;;;58.67;5.20;;;;;;;;;;5052909;28;20563;-65
2023/06/08 14:15:35;;;;;;;57.37;2.80;;;;;;;;;;5052996;28;20474;-65
2023/06/08 14:18:02;;;;;;;57.70;3.00;;;;;;;;;;5052894;28;20445;-65
2023/06/08 14:20:33;;;;;;;58.07;3.20;;;;;;;;;;5052344;28;20480;-65
2023/06/08 14:23:01;;;;;;;58.57;3.57;;;;;;;;;;5053247;28;20802;-65
2023/06/08 14:25:28;;;;;;;59.77;3.07;;;;;;;;;;5052725;28;20452;-65
2023/06/08 14:27:55;;;;;;;57.40;2.50;;;;;;;;;;5053410;28;20458;-65
2023/06/08 14:30:23;;;;;;;57.60;3.10;;;;;;;;;;5052274;28;20448;-65
2023/06/08 14:32:51;;;;;;;58.73;3.00;;;;;;;;;;5052602;28;20840;-65
2023/06/08 14:35:18;;;;;;;63.10;5.17;;;;;;;;;;5052533;28;20452;-67
2023/06/08 14:37:47;;;;;;;57.70;3.63;;;;;;;;;;5052699;28;20444;-68
2023/06/08 14:40:14;;;;;;;57.70;2.80;;;;;;;;;;5051880;28;20509;-68
2023/06/08 14:42:42;;;;;;;58.10;3.67;;;;;;;;;;5052469;28;20470;-68
2023/06/08 14:45:10;;;;;;;57.07;2.50;;;;;;;;;;5052454;28;20514;-68
2023/06/08 14:47:37;;;;;;;59.00;3.57;;;;;;;;;;5052065;28;20574;-68
2023/06/08 14:50:05;;;;;;;57.60;2.60;;;;;;;;;;5051886;28;20778;-68